sensor_id;sensor_type;location;lat;lon;timestamp;pressure;altitude;pressure_sealevel;temperature
40624;BMP280;26325;48.594;11.650;2023-01-28T00:01:13;97071.31;;;1.17
40624;BMP280;26325;48.594;11.650;2023-01-28T00:03:39;97061.91;;;1.17
40624;BMP280;26325;48.594;11.650;2023-01-28T00:06:12;97066.06;;;1.18
40624;BMP280;26325;48.594;11.650;2023-01-28T00:08:38;97065.69;;;1.21
40624;BMP280;26325;48.594;11.650;2023-01-28T00:11:05;97063.94;;;1.22
40624;BMP280;26325;48.594;11.650;2023-01-28T00:13:32;97064.91;;;1.21
40624;BMP280;26325;48.594;11.650;2023-01-28T00:16:01;97055.50;;;1.21
40624;BMP280;26325;48.594;11.650;2023-01-28T00:18:30;97067.63;;;1.19
40624;BMP280;26325;48.594;11.650;2023-01-28T00:21:02;97058.34;;;1.26
40624;BMP280;26325;48.594;11.650;2023-01-28T00:23:31;97064.72;;;1.22
40624;BMP280;26325;48.594;11.650;2023-01-28T00:25:58;97066.84;;;1.19
40624;BMP280;26325;48.594;11.650;2023-01-28T00:28:26;97062.34;;;1.21
40624;BMP280;26325;48.594;11.650;2023-01-28T00:30:52;97067.97;;;1.16
40624;BMP280;26325;48.594;11.650;2023-01-28T00:33:18;97075.44;;;1.18
40624;BMP280;26325;48.594;11.650;2023-01-28T00:35:44;97067.63;;;1.19
40624;BMP280;26325;48.594;11.650;2023-01-28T00:38:12;97065.72;;;0.99
40624;BMP280;26325;48.594;11.650;2023-01-28T00:40:38;97070.47;;;1.02
40624;BMP280;26325;48.594;11.650;2023-01-28T00:43:05;97065.56;;;1.01
40624;BMP280;26325;48.594;11.650;2023-01-28T00:45:34;97070.59;;;1.09
40624;BMP280;26325;48.594;11.650;2023-01-28T00:48:03;97060.84;;;1.12
40624;BMP280;26325;48.594;11.650;2023-01-28T00:50:29;97065.50;;;1.09
40624;BMP280;26325;48.594;11.650;2023-01-28T00:52:55;97069.38;;;0.97
40624;BMP280;26325;48.594;11.650;2023-01-28T00:55:20;97071.59;;;1.00
40624;BMP280;26325;48.594;11.650;2023-01-28T00:57:46;97069.06;;;1.00
40624;BMP280;26325;48.594;11.650;2023-01-28T01:00:11;97073.19;;;1.01
40624;BMP280;26325;48.594;11.650;2023-01-28T01:02:39;97077.66;;;0.99
40624;BMP280;26325;48.594;11.650;2023-01-28T01:05:06;97073.19;;;1.01
40624;BMP280;26325;48.594;11.650;2023-01-28T01:07:31;97072.88;;;0.96
40624;BMP280;26325;48.594;11.650;2023-01-28T01:10:12;97079.28;;;0.92
40624;BMP280;26325;48.594;11.650;2023-01-28T01:12:38;97077.13;;;0.81
40624;BMP280;26325;48.594;11.650;2023-01-28T01:15:05;97082.78;;;0.91
40624;BMP280;26325;48.594;11.650;2023-01-28T01:17:38;97086.56;;;0.95
40624;BMP280;26325;48.594;11.650;2023-01-28T01:20:13;97093.06;;;0.97
40624;BMP280;26325;48.594;11.650;2023-01-28T01:22:39;97078.94;;;0.95
40624;BMP280;26325;48.594;11.650;2023-01-28T01:25:05;97083.19;;;1.02
40624;BMP280;26325;48.594;11.650;2023-01-28T01:27:31;97082.63;;;0.93
40624;BMP280;26325;48.594;11.650;2023-01-28T01:29:59;97084.72;;;0.89
40624;BMP280;26325;48.594;11.650;2023-01-28T01:32:29;97085.03;;;0.86
40624;BMP280;26325;48.594;11.650;2023-01-28T01:34:55;97079.34;;;0.84
40624;BMP280;26325;48.594;11.650;2023-01-28T01:37:26;97086.63;;;0.87
40624;BMP280;26325;48.594;11.650;2023-01-28T01:39:52;97083.47;;;0.85
40624;BMP280;26325;48.594;11.650;2023-01-28T01:42:20;97090.59;;;0.90
40624;BMP280;26325;48.594;11.650;2023-01-28T01:53:17;97103.63;;;0.87
40624;BMP280;26325;48.594;11.650;2023-01-28T01:55:48;97100.59;;;0.91
40624;BMP280;26325;48.594;11.650;2023-01-28T01:58:18;97096.78;;;0.87
40624;BMP280;26325;48.594;11.650;2023-01-28T02:00:46;97104.84;;;0.76
40624;BMP280;26325;48.594;11.650;2023-01-28T02:03:12;97099.44;;;0.72
40624;BMP280;26325;48.594;11.650;2023-01-28T02:05:38;97101.44;;;0.84
40624;BMP280;26325;48.594;11.650;2023-01-28T02:08:05;97092.66;;;0.86
40624;BMP280;26325;48.594;11.650;2023-01-28T02:11:06;97099.88;;;0.83
40624;BMP280;26325;48.594;11.650;2023-01-28T02:13:38;97106.69;;;0.82
40624;BMP280;26325;48.594;11.650;2023-01-28T02:16:06;97107.97;;;0.78
40624;BMP280;26325;48.594;11.650;2023-01-28T02:18:36;97108.44;;;0.60
40624;BMP280;26325;48.594;11.650;2023-01-28T02:21:36;97115.06;;;0.61
40624;BMP280;26325;48.594;11.650;2023-01-28T02:24:33;97117.25;;;0.72
40624;BMP280;26325;48.594;11.650;2023-01-28T02:35:15;97115.91;;;0.83
40624;BMP280;26325;48.594;11.650;2023-01-28T02:37:52;97121.63;;;0.85
40624;BMP280;26325;48.594;11.650;2023-01-28T02:40:26;97122.00;;;0.75
40624;BMP280;26325;48.594;11.650;2023-01-28T02:42:55;97126.50;;;0.65
40624;BMP280;26325;48.594;11.650;2023-01-28T02:45:32;97123.66;;;0.68
40624;BMP280;26325;48.594;11.650;2023-01-28T02:48:20;97128.25;;;0.64
40624;BMP280;26325;48.594;11.650;2023-01-28T02:51:10;97135.00;;;0.79
40624;BMP280;26325;48.594;11.650;2023-01-28T02:54:13;97123.97;;;0.65
40624;BMP280;26325;48.594;11.650;2023-01-28T02:57:04;97128.03;;;0.74
40624;BMP280;26325;48.594;11.650;2023-01-28T03:08:35;97130.91;;;0.71
40624;BMP280;26325;48.594;11.650;2023-01-28T03:11:20;97126.13;;;0.76
40624;BMP280;26325;48.594;11.650;2023-01-28T03:14:06;97122.84;;;0.67
40624;BMP280;26325;48.594;11.650;2023-01-28T03:16:52;97121.22;;;0.74
40624;BMP280;26325;48.594;11.650;2023-01-28T03:19:37;97124.75;;;0.65
40624;BMP280;26325;48.594;11.650;2023-01-28T03:22:23;97130.25;;;0.76
40624;BMP280;26325;48.594;11.650;2023-01-28T03:25:08;97124.38;;;0.76
40624;BMP280;26325;48.594;11.650;2023-01-28T03:27:59;97111.88;;;0.89
40624;BMP280;26325;48.594;11.650;2023-01-28T03:31:13;97125.19;;;0.76
40624;BMP280;26325;48.594;11.650;2023-01-28T03:33:59;97138.97;;;0.82
40624;BMP280;26325;48.594;11.650;2023-01-28T03:36:44;97128.31;;;0.78
40624;BMP280;26325;48.594;11.650;2023-01-28T03:39:26;97131.19;;;0.83
40624;BMP280;26325;48.594;11.650;2023-01-28T03:42:08;97137.84;;;0.84
40624;BMP280;26325;48.594;11.650;2023-01-28T03:44:34;97141.00;;;0.86
40624;BMP280;26325;48.594;11.650;2023-01-28T03:47:25;97135.91;;;0.86
40624;BMP280;26325;48.594;11.650;2023-01-28T03:49:53;97139.53;;;0.92
40624;BMP280;26325;48.594;11.650;2023-01-28T03:52:25;97144.41;;;1.01
40624;BMP280;26325;48.594;11.650;2023-01-28T03:54:51;97140.91;;;1.02
40624;BMP280;26325;48.594;11.650;2023-01-28T03:57:24;97149.81;;;0.98
40624;BMP280;26325;48.594;11.650;2023-01-28T03:59:58;97148.34;;;0.81
40624;BMP280;26325;48.594;11.650;2023-01-28T04:02:23;97147.88;;;0.78
40624;BMP280;26325;48.594;11.650;2023-01-28T04:04:51;97142.31;;;0.82
40624;BMP280;26325;48.594;11.650;2023-01-28T04:07:16;97145.31;;;0.78
40624;BMP280;26325;48.594;11.650;2023-01-28T04:09:45;97148.88;;;0.69
40624;BMP280;26325;48.594;11.650;2023-01-28T04:12:11;97149.31;;;0.80
40624;BMP280;26325;48.594;11.650;2023-01-28T04:14:36;97158.63;;;0.88
40624;BMP280;26325;48.594;11.650;2023-01-28T04:17:04;97152.09;;;0.93
40624;BMP280;26325;48.594;11.650;2023-01-28T04:19:31;97157.50;;;0.90
40624;BMP280;26325;48.594;11.650;2023-01-28T04:22:07;97161.06;;;0.81
40624;BMP280;26325;48.594;11.650;2023-01-28T04:24:34;97156.94;;;0.80
40624;BMP280;26325;48.594;11.650;2023-01-28T04:27:02;97162.59;;;0.90
40624;BMP280;26325;48.594;11.650;2023-01-28T04:29:27;97153.97;;;0.99
40624;BMP280;26325;48.594;11.650;2023-01-28T04:31:55;97155.25;;;0.95
40624;BMP280;26325;48.594;11.650;2023-01-28T04:34:23;97159.63;;;1.09
40624;BMP280;26325;48.594;11.650;2023-01-28T04:36:51;97163.50;;;0.97
40624;BMP280;26325;48.594;11.650;2023-01-28T04:39:16;97162.13;;;0.95
40624;BMP280;26325;48.594;11.650;2023-01-28T04:41:46;97172.44;;;0.93
40624;BMP280;26325;48.594;11.650;2023-01-28T04:44:12;97170.50;;;0.95
40624;BMP280;26325;48.594;11.650;2023-01-28T04:46:41;97168.16;;;0.94
40624;BMP280;26325;48.594;11.650;2023-01-28T04:49:07;97169.22;;;0.99
40624;BMP280;26325;48.594;11.650;2023-01-28T04:51:32;97175.59;;;0.95
40624;BMP280;26325;48.594;11.650;2023-01-28T04:53:58;97174.31;;;0.99
40624;BMP280;26325;48.594;11.650;2023-01-28T04:56:23;97181.81;;;0.93
40624;BMP280;26325;48.594;11.650;2023-01-28T04:58:49;97169.56;;;0.96
40624;BMP280;26325;48.594;11.650;2023-01-28T05:01:14;97184.81;;;0.96
40624;BMP280;26325;48.594;11.650;2023-01-28T05:03:40;97176.91;;;0.91
40624;BMP280;26325;48.594;11.650;2023-01-28T05:06:05;97190.09;;;0.95
40624;BMP280;26325;48.594;11.650;2023-01-28T05:08:31;97185.78;;;0.95
40624;BMP280;26325;48.594;11.650;2023-01-28T05:10:57;97192.13;;;0.99
40624;BMP280;26325;48.594;11.650;2023-01-28T05:13:22;97192.75;;;1.01
40624;BMP280;26325;48.594;11.650;2023-01-28T05:15:54;97195.25;;;1.09
40624;BMP280;26325;48.594;11.650;2023-01-28T05:18:21;97193.34;;;1.11
40624;BMP280;26325;48.594;11.650;2023-01-28T05:20:47;97192.38;;;1.12
40624;BMP280;26325;48.594;11.650;2023-01-28T05:23:15;97191.75;;;1.10
40624;BMP280;26325;48.594;11.650;2023-01-28T05:25:42;97200.66;;;1.06
40624;BMP280;26325;48.594;11.650;2023-01-28T05:28:08;97190.47;;;1.06
40624;BMP280;26325;48.594;11.650;2023-01-28T05:30:33;97199.91;;;0.97
40624;BMP280;26325;48.594;11.650;2023-01-28T05:33:01;97198.16;;;0.98
40624;BMP280;26325;48.594;11.650;2023-01-28T05:35:27;97196.56;;;0.97
40624;BMP280;26325;48.594;11.650;2023-01-28T05:38:02;97199.13;;;0.97
40624;BMP280;26325;48.594;11.650;2023-01-28T05:40:29;97199.22;;;1.03
40624;BMP280;26325;48.594;11.650;2023-01-28T05:42:54;97201.34;;;1.00
40624;BMP280;26325;48.594;11.650;2023-01-28T05:45:24;97199.06;;;1.05
40624;BMP280;26325;48.594;11.650;2023-01-28T05:47:57;97192.13;;;0.99
40624;BMP280;26325;48.594;11.650;2023-01-28T05:50:22;97191.84;;;0.94
40624;BMP280;26325;48.594;11.650;2023-01-28T05:52:53;97200.44;;;0.93
40624;BMP280;26325;48.594;11.650;2023-01-28T05:55:31;97192.13;;;0.99
40624;BMP280;26325;48.594;11.650;2023-01-28T05:57:57;97202.56;;;1.04
40624;BMP280;26325;48.594;11.650;2023-01-28T06:00:22;97197.78;;;1.09
40624;BMP280;26325;48.594;11.650;2023-01-28T06:02:50;97195.41;;;1.07
40624;BMP280;26325;48.594;11.650;2023-01-28T06:07:46;97198.47;;;1.03
40624;BMP280;26325;48.594;11.650;2023-01-28T06:10:25;97196.53;;;1.05
40624;BMP280;26325;48.594;11.650;2023-01-28T06:12:58;97204.00;;;1.06
40624;BMP280;26325;48.594;11.650;2023-01-28T06:15:24;97199.22;;;1.03
40624;BMP280;26325;48.594;11.650;2023-01-28T06:17:50;97204.78;;;1.07
40624;BMP280;26325;48.594;11.650;2023-01-28T06:20:22;97204.84;;;0.99
40624;BMP280;26325;48.594;11.650;2023-01-28T06:22:52;97208.00;;;1.01
40624;BMP280;26325;48.594;11.650;2023-01-28T06:25:18;97213.38;;;1.06
40624;BMP280;26325;48.594;11.650;2023-01-28T06:27:44;97222.75;;;1.05
40624;BMP280;26325;48.594;11.650;2023-01-28T06:30:12;97226.94;;;0.98
40624;BMP280;26325;48.594;11.650;2023-01-28T06:32:37;97233.72;;;1.06
40624;BMP280;26325;48.594;11.650;2023-01-28T06:35:04;97233.09;;;1.04
40624;BMP280;26325;48.594;11.650;2023-01-28T06:37:31;97243.13;;;1.05
40624;BMP280;26325;48.594;11.650;2023-01-28T06:39:57;97242.31;;;1.05
40624;BMP280;26325;48.594;11.650;2023-01-28T06:42:22;97260.91;;;1.05
40624;BMP280;26325;48.594;11.650;2023-01-28T06:44:49;97261.09;;;1.04
40624;BMP280;26325;48.594;11.650;2023-01-28T06:47:18;97261.22;;;1.10
40624;BMP280;26325;48.594;11.650;2023-01-28T06:49:43;97265.84;;;1.07
40624;BMP280;26325;48.594;11.650;2023-01-28T06:52:11;97260.75;;;1.07
40624;BMP280;26325;48.594;11.650;2023-01-28T06:54:36;97272.53;;;1.08
40624;BMP280;26325;48.594;11.650;2023-01-28T06:57:04;97268.22;;;1.08
40624;BMP280;26325;48.594;11.650;2023-01-28T06:59:37;97268.22;;;1.08
40624;BMP280;26325;48.594;11.650;2023-01-28T07:02:05;97272.22;;;1.11
40624;BMP280;26325;48.594;11.650;2023-01-28T07:04:31;97279.50;;;1.13
40624;BMP280;26325;48.594;11.650;2023-01-28T07:06:58;97275.81;;;1.16
40624;BMP280;26325;48.594;11.650;2023-01-28T07:09:23;97276.09;;;1.21
40624;BMP280;26325;48.594;11.650;2023-01-28T07:11:50;97280.06;;;1.23
40624;BMP280;26325;48.594;11.650;2023-01-28T07:14:15;97284.09;;;1.18
40624;BMP280;26325;48.594;11.650;2023-01-28T07:16:52;97277.88;;;1.20
40624;BMP280;26325;48.594;11.650;2023-01-28T07:19:31;97281.66;;;1.24
40624;BMP280;26325;48.594;11.650;2023-01-28T07:21:59;97287.88;;;1.22
40624;BMP280;26325;48.594;11.650;2023-01-28T07:24:28;97286.59;;;1.26
40624;BMP280;26325;48.594;11.650;2023-01-28T07:26:58;97294.06;;;1.27
40624;BMP280;26325;48.594;11.650;2023-01-28T07:29:24;97289.09;;;1.33
40624;BMP280;26325;48.594;11.650;2023-01-28T07:31:51;97292.28;;;1.35
40624;BMP280;26325;48.594;11.650;2023-01-28T07:34:19;97285.28;;;1.37
40624;BMP280;26325;48.594;11.650;2023-01-28T07:36:45;97288.41;;;1.39
40624;BMP280;26325;48.594;11.650;2023-01-28T07:39:11;97293.34;;;1.41
40624;BMP280;26325;48.594;11.650;2023-01-28T07:41:37;97294.78;;;1.43
40624;BMP280;26325;48.594;11.650;2023-01-28T07:44:03;97297.75;;;1.47
40624;BMP280;26325;48.594;11.650;2023-01-28T07:46:33;97313.66;;;1.49
40624;BMP280;26325;48.594;11.650;2023-01-28T07:48:58;97306.66;;;1.51
40624;BMP280;26325;48.594;11.650;2023-01-28T07:51:24;97308.94;;;1.46
40624;BMP280;26325;48.594;11.650;2023-01-28T07:53:50;97305.69;;;1.52
40624;BMP280;26325;48.594;11.650;2023-01-28T07:56:19;97315.38;;;1.56
40624;BMP280;26325;48.594;11.650;2023-01-28T07:58:44;97314.19;;;1.44
40624;BMP280;26325;48.594;11.650;2023-01-28T08:01:22;97308.44;;;1.42
40624;BMP280;26325;48.594;11.650;2023-01-28T08:03:47;97317.16;;;1.48
40624;BMP280;26325;48.594;11.650;2023-01-28T08:06:16;97320.38;;;1.42
40624;BMP280;26325;48.594;11.650;2023-01-28T08:08:46;97323.19;;;1.54
40624;BMP280;26325;48.594;11.650;2023-01-28T08:11:15;97323.53;;;1.52
40624;BMP280;26325;48.594;11.650;2023-01-28T08:13:41;97318.09;;;1.54
40624;BMP280;26325;48.594;11.650;2023-01-28T08:16:06;97326.69;;;1.53
40624;BMP280;26325;48.594;11.650;2023-01-28T08:18:32;97329.84;;;1.55
40624;BMP280;26325;48.594;11.650;2023-01-28T08:20:58;97334.13;;;1.63
40624;BMP280;26325;48.594;11.650;2023-01-28T08:23:25;97335.88;;;1.62
40624;BMP280;26325;48.594;11.650;2023-01-28T08:25:52;97334.13;;;1.63
40624;BMP280;26325;48.594;11.650;2023-01-28T08:28:19;97329.63;;;1.65
40624;BMP280;26325;48.594;11.650;2023-01-28T08:30:50;97341.88;;;1.69
40624;BMP280;26325;48.594;11.650;2023-01-28T08:33:16;97338.06;;;1.65
40624;BMP280;26325;48.594;11.650;2023-01-28T08:35:42;97339.97;;;1.71
40624;BMP280;26325;48.594;11.650;2023-01-28T08:38:10;97342.22;;;1.66
40624;BMP280;26325;48.594;11.650;2023-01-28T08:40:36;97342.78;;;1.76
40624;BMP280;26325;48.594;11.650;2023-01-28T08:43:03;97335.88;;;1.84
40624;BMP280;26325;48.594;11.650;2023-01-28T08:45:28;97336.34;;;1.88
40624;BMP280;26325;48.594;11.650;2023-01-28T08:48:00;97338.06;;;1.95
40624;BMP280;26325;48.594;11.650;2023-01-28T08:50:31;97334.19;;;1.99
40624;BMP280;26325;48.594;11.650;2023-01-28T08:53:06;97342.13;;;2.04
40624;BMP280;26325;48.594;11.650;2023-01-28T08:55:33;97342.22;;;2.10
40624;BMP280;26325;48.594;11.650;2023-01-28T08:58:04;97335.53;;;2.09
40624;BMP280;26325;48.594;11.650;2023-01-28T09:00:31;97340.00;;;2.07
40624;BMP280;26325;48.594;11.650;2023-01-28T09:02:57;97350.19;;;2.15
40624;BMP280;26325;48.594;11.650;2023-01-28T09:05:22;97351.31;;;2.12
40624;BMP280;26325;48.594;11.650;2023-01-28T09:07:48;97353.69;;;2.14
40624;BMP280;26325;48.594;11.650;2023-01-28T09:10:17;97348.28;;;2.09
40624;BMP280;26325;48.594;11.650;2023-01-28T09:12:45;97349.94;;;2.02
40624;BMP280;26325;48.594;11.650;2023-01-28T09:15:16;97355.72;;;1.96
40624;BMP280;26325;48.594;11.650;2023-01-28T09:17:42;97363.97;;;1.98
40624;BMP280;26325;48.594;11.650;2023-01-28T09:20:08;97363.97;;;1.98
40624;BMP280;26325;48.594;11.650;2023-01-28T09:22:34;97360.91;;;2.03
40624;BMP280;26325;48.594;11.650;2023-01-28T09:25:00;97362.03;;;2.00
40624;BMP280;26325;48.594;11.650;2023-01-28T09:27:43;97355.66;;;2.04
40624;BMP280;26325;48.594;11.650;2023-01-28T09:30:09;97364.53;;;2.08
40624;BMP280;26325;48.594;11.650;2023-01-28T09:32:35;97368.97;;;2.14
40624;BMP280;26325;48.594;11.650;2023-01-28T09:35:03;97367.09;;;2.08
40624;BMP280;26325;48.594;11.650;2023-01-28T09:37:29;97361.44;;;2.20
40624;BMP280;26325;48.594;11.650;2023-01-28T09:40:01;97363.88;;;2.14
40624;BMP280;26325;48.594;11.650;2023-01-28T09:47:55;97371.63;;;2.20
40624;BMP280;26325;48.594;11.650;2023-01-28T09:53:21;97361.63;;;2.33
40624;BMP280;26325;48.594;11.650;2023-01-28T09:56:02;97364.84;;;2.13
40624;BMP280;26325;48.594;11.650;2023-01-28T09:58:28;97366.78;;;2.25
40624;BMP280;26325;48.594;11.650;2023-01-28T10:03:53;97362.34;;;2.41
40624;BMP280;26325;48.594;11.650;2023-01-28T10:18:29;97354.13;;;2.53
40624;BMP280;26325;48.594;11.650;2023-01-28T10:21:14;97353.19;;;2.54
40624;BMP280;26325;48.594;11.650;2023-01-28T10:23:51;97353.25;;;2.47
40624;BMP280;26325;48.594;11.650;2023-01-28T10:26:42;97354.31;;;2.52
40624;BMP280;26325;48.594;11.650;2023-01-28T10:29:14;97357.72;;;2.45
40624;BMP280;26325;48.594;11.650;2023-01-28T10:31:54;97354.13;;;2.39
40624;BMP280;26325;48.594;11.650;2023-01-28T10:34:20;97353.97;;;2.33
40624;BMP280;26325;48.594;11.650;2023-01-28T10:36:48;97359.88;;;2.33
40624;BMP280;26325;48.594;11.650;2023-01-28T10:39:15;97354.97;;;2.32
40624;BMP280;26325;48.594;11.650;2023-01-28T10:41:42;97366.94;;;2.31
40624;BMP280;26325;48.594;11.650;2023-01-28T10:44:21;97367.72;;;2.32
40624;BMP280;26325;48.594;11.650;2023-01-28T10:46:50;97372.91;;;2.38
40624;BMP280;26325;48.594;11.650;2023-01-28T10:49:25;97371.97;;;2.39
40624;BMP280;26325;48.594;11.650;2023-01-28T10:51:51;97375.09;;;2.41
40624;BMP280;26325;48.594;11.650;2023-01-28T10:54:26;97376.69;;;2.42
40624;BMP280;26325;48.594;11.650;2023-01-28T10:57:00;97367.81;;;2.38
40624;BMP280;26325;48.594;11.650;2023-01-28T10:59:34;97368.63;;;2.39
40624;BMP280;26325;48.594;11.650;2023-01-28T11:02:04;97368.50;;;2.32
40624;BMP280;26325;48.594;11.650;2023-01-28T11:04:43;97360.66;;;2.34
40624;BMP280;26325;48.594;11.650;2023-01-28T11:07:20;97358.72;;;2.22
40624;BMP280;26325;48.594;11.650;2023-01-28T11:09:50;97362.09;;;2.36
40624;BMP280;26325;48.594;11.650;2023-01-28T11:12:28;97368.50;;;2.32
40624;BMP280;26325;48.594;11.650;2023-01-28T11:15:00;97358.97;;;2.48
40624;BMP280;26325;48.594;11.650;2023-01-28T11:17:37;97351.59;;;2.53
40624;BMP280;26325;48.594;11.650;2023-01-28T11:20:20;97357.22;;;2.63
40624;BMP280;26325;48.594;11.650;2023-01-28T11:22:47;97361.28;;;2.72
40624;BMP280;26325;48.594;11.650;2023-01-28T11:25:33;97364.09;;;2.77
40624;BMP280;26325;48.594;11.650;2023-01-28T11:28:16;97354.78;;;2.69
40624;BMP280;26325;48.594;11.650;2023-01-28T11:30:42;97355.06;;;2.74
40624;BMP280;26325;48.594;11.650;2023-01-28T11:33:25;97351.81;;;2.80
40624;BMP280;26325;48.594;11.650;2023-01-28T11:36:05;97360.34;;;2.87
40624;BMP280;26325;48.594;11.650;2023-01-28T11:38:31;97356.47;;;2.91
40624;BMP280;26325;48.594;11.650;2023-01-28T11:40:58;97351.38;;;2.91
40624;BMP280;26325;48.594;11.650;2023-01-28T11:43:30;97352.44;;;2.96
40624;BMP280;26325;48.594;11.650;2023-01-28T11:51:56;97351.63;;;2.96
40624;BMP280;26325;48.594;11.650;2023-01-28T11:59:55;97353.69;;;3.00
40624;BMP280;26325;48.594;11.650;2023-01-28T12:05:38;97357.44;;;2.90
40624;BMP280;26325;48.594;11.650;2023-01-28T12:11:37;97350.66;;;2.83
40624;BMP280;26325;48.594;11.650;2023-01-28T12:23:10;97348.53;;;2.86
40624;BMP280;26325;48.594;11.650;2023-01-28T12:26:09;97351.09;;;2.86
40624;BMP280;26325;48.594;11.650;2023-01-28T12:29:15;97351.53;;;2.75
40624;BMP280;26325;48.594;11.650;2023-01-28T12:37:59;97349.50;;;2.85
40624;BMP280;26325;48.594;11.650;2023-01-28T12:41:00;97348.81;;;2.91
40624;BMP280;26325;48.594;11.650;2023-01-28T12:43:55;97340.13;;;3.00
40624;BMP280;26325;48.594;11.650;2023-01-28T12:46:50;97337.13;;;2.96
40624;BMP280;26325;48.594;11.650;2023-01-28T12:49:34;97345.81;;;3.02
40624;BMP280;26325;48.594;11.650;2023-01-28T12:57:34;97342.59;;;3.07
40624;BMP280;26325;48.594;11.650;2023-01-28T13:03:48;97338.38;;;3.00
40624;BMP280;26325;48.594;11.650;2023-01-28T13:06:26;97337.38;;;3.01
40624;BMP280;26325;48.594;11.650;2023-01-28T13:09:11;97339.66;;;2.96
40624;BMP280;26325;48.594;11.650;2023-01-28T13:11:39;97341.00;;;2.92
40624;BMP280;26325;48.594;11.650;2023-01-28T13:14:06;97337.66;;;2.92
40624;BMP280;26325;48.594;11.650;2023-01-28T13:16:32;97343.97;;;2.96
40624;BMP280;26325;48.594;11.650;2023-01-28T13:19:22;97341.44;;;2.96
40624;BMP280;26325;48.594;11.650;2023-01-28T13:21:48;97349.97;;;3.03
40624;BMP280;26325;48.594;11.650;2023-01-28T13:26:47;97358.84;;;3.21
40624;BMP280;26325;48.594;11.650;2023-01-28T13:31:44;97353.47;;;3.02
40624;BMP280;26325;48.594;11.650;2023-01-28T13:34:26;97366.88;;;3.03
40624;BMP280;26325;48.594;11.650;2023-01-28T13:36:55;97357.78;;;3.01
40624;BMP280;26325;48.594;11.650;2023-01-28T13:39:23;97364.94;;;3.05
40624;BMP280;26325;48.594;11.650;2023-01-28T13:42:06;97359.47;;;3.08
40624;BMP280;26325;48.594;11.650;2023-01-28T13:44:34;97354.38;;;3.08
40624;BMP280;26325;48.594;11.650;2023-01-28T13:49:42;97364.41;;;2.96
40624;BMP280;26325;48.594;11.650;2023-01-28T13:52:12;97362.56;;;2.90
40624;BMP280;26325;48.594;11.650;2023-01-28T13:55:17;97364.66;;;2.86
40624;BMP280;26325;48.594;11.650;2023-01-28T13:58:34;97359.53;;;2.86
40624;BMP280;26325;48.594;11.650;2023-01-28T14:01:55;97361.66;;;2.83
40624;BMP280;26325;48.594;11.650;2023-01-28T14:07:16;97373.81;;;2.45
40624;BMP280;26325;48.594;11.650;2023-01-28T14:18:34;97388.31;;;2.66
40624;BMP280;26325;48.594;11.650;2023-01-28T14:21:13;97393.75;;;2.64
40624;BMP280;26325;48.594;11.650;2023-01-28T14:23:47;97390.66;;;2.68
40624;BMP280;26325;48.594;11.650;2023-01-28T14:29:17;97400.34;;;2.72
40624;BMP280;26325;48.594;11.650;2023-01-28T14:31:46;97390.66;;;2.68
40624;BMP280;26325;48.594;11.650;2023-01-28T14:36:47;97397.50;;;2.67
40624;BMP280;26325;48.594;11.650;2023-01-28T14:42:21;97413.13;;;2.72
40624;BMP280;26325;48.594;11.650;2023-01-28T14:44:59;97406.72;;;2.54
40624;BMP280;26325;48.594;11.650;2023-01-28T14:47:46;97405.88;;;2.62
40624;BMP280;26325;48.594;11.650;2023-01-28T14:58:45;97402.03;;;2.66
40624;BMP280;26325;48.594;11.650;2023-01-28T15:01:25;97413.97;;;2.65
40624;BMP280;26325;48.594;11.650;2023-01-28T15:03:52;97409.66;;;2.66
40624;BMP280;26325;48.594;11.650;2023-01-28T15:06:22;97416.16;;;2.68
40624;BMP280;26325;48.594;11.650;2023-01-28T15:08:52;97412.22;;;2.66
40624;BMP280;26325;48.594;11.650;2023-01-28T15:11:23;97425.94;;;2.65
40624;BMP280;26325;48.594;11.650;2023-01-28T15:13:57;97420.53;;;2.60
40624;BMP280;26325;48.594;11.650;2023-01-28T15:16:26;97423.09;;;2.60
40624;BMP280;26325;48.594;11.650;2023-01-28T15:18:54;97429.16;;;2.59
40624;BMP280;26325;48.594;11.650;2023-01-28T15:21:23;97430.47;;;2.55
40624;BMP280;26325;48.594;11.650;2023-01-28T15:23:54;97437.34;;;2.54
40624;BMP280;26325;48.594;11.650;2023-01-28T15:26:27;97434.00;;;2.54
40624;BMP280;26325;48.594;11.650;2023-01-28T15:28:54;97432.69;;;2.58
40624;BMP280;26325;48.594;11.650;2023-01-28T15:31:24;97438.75;;;2.57
40624;BMP280;26325;48.594;11.650;2023-01-28T15:36:24;97441.41;;;2.63
40624;BMP280;26325;48.594;11.650;2023-01-28T15:38:53;97440.78;;;2.61
40624;BMP280;26325;48.594;11.650;2023-01-28T15:41:22;97445.25;;;2.59
40624;BMP280;26325;48.594;11.650;2023-01-28T15:43:50;97439.09;;;2.54
40624;BMP280;26325;48.594;11.650;2023-01-28T15:46:16;97441.38;;;2.49
40624;BMP280;26325;48.594;11.650;2023-01-28T15:48:54;97443.72;;;2.50
40624;BMP280;26325;48.594;11.650;2023-01-28T15:51:31;97444.88;;;2.48
40624;BMP280;26325;48.594;11.650;2023-01-28T15:54:06;97450.16;;;2.47
40624;BMP280;26325;48.594;11.650;2023-01-28T15:56:33;97453.50;;;2.47
40624;BMP280;26325;48.594;11.650;2023-01-28T15:59:21;97461.13;;;2.47
40624;BMP280;26325;48.594;11.650;2023-01-28T16:01:48;97458.75;;;2.46
40624;BMP280;26325;48.594;11.650;2023-01-28T16:04:25;97462.00;;;2.40
40624;BMP280;26325;48.594;11.650;2023-01-28T16:06:51;97463.59;;;2.41
40624;BMP280;26325;48.594;11.650;2023-01-28T16:09:29;97466.31;;;2.39
40624;BMP280;26325;48.594;11.650;2023-01-28T16:12:07;97473.66;;;2.34
40624;BMP280;26325;48.594;11.650;2023-01-28T16:15:02;97478.13;;;2.32
40624;BMP280;26325;48.594;11.650;2023-01-28T16:17:34;97477.50;;;2.30
40624;BMP280;26325;48.594;11.650;2023-01-28T16:20:19;97479.09;;;2.31
40624;BMP280;26325;48.594;11.650;2023-01-28T16:22:46;97475.91;;;2.29
40624;BMP280;26325;48.594;11.650;2023-01-28T16:25:33;97472.25;;;2.32
40624;BMP280;26325;48.594;11.650;2023-01-28T16:28:02;97476.88;;;2.28
40624;BMP280;26325;48.594;11.650;2023-01-28T16:30:28;97479.25;;;2.30
40624;BMP280;26325;48.594;11.650;2023-01-28T16:32:54;97487.06;;;2.28
40624;BMP280;26325;48.594;11.650;2023-01-28T16:35:29;97483.72;;;2.28
40624;BMP280;26325;48.594;11.650;2023-01-28T16:37:54;97483.25;;;2.25
40624;BMP280;26325;48.594;11.650;2023-01-28T16:40:23;97487.72;;;2.30
40624;BMP280;26325;48.594;11.650;2023-01-28T16:42:53;97492.19;;;2.28
40624;BMP280;26325;48.594;11.650;2023-01-28T16:45:23;97491.91;;;2.24
40624;BMP280;26325;48.594;11.650;2023-01-28T16:47:52;97492.66;;;2.24